Time;durP1;ratioP1;P1;durP2;ratioP2;P2;SDS_P1;SDS_P2;PMS_P1;PMS_P2;Temp;Humidity;BMP_temperature;BMP_pressure;BME280_temperature;BME280_humidity;BME280_pressure;Samples;Min_cycle;Max_cycle;Signal;HPM_P1;HPM_P2
2023/07/09 00:04:51;;;;;;;3.83;3.50;;;24.50;72.30;;;;;;10505162;28;20222;-76
2023/07/09 00:09:54;;;;;;;5.90;3.97;;;24.40;72.50;;;;;;10521591;28;20294;-79
2023/07/09 00:14:58;;;;;;;4.07;3.73;;;24.40;72.70;;;;;;10523209;28;20270;-79
2023/07/09 00:20:00;;;;;;;5.40;4.33;;;24.40;72.60;;;;;;10515625;28;20536;-78
2023/07/09 00:25:03;;;;;;;3.97;3.67;;;24.30;72.90;;;;;;10520237;28;20229;-78
2023/07/09 00:30:14;;;;;;;3.93;3.63;;;24.20;73.00;;;;;;10521936;28;20224;-78
2023/07/09 00:35:16;;;;;;;4.87;4.40;;;24.20;73.30;;;;;;10521751;28;20224;-76
2023/07/09 00:40:21;;;;;;;4.80;4.27;;;24.20;74.00;;;;;;10517080;28;20190;-81
2023/07/09 00:45:26;;;;;;;4.87;4.30;;;24.20;73.40;;;;;;10522378;28;20228;-81
2023/07/09 00:50:36;;;;;;;6.47;5.03;;;24.10;73.90;;;;;;10520885;28;20448;-79
2023/07/09 00:55:42;;;;;;;4.70;4.30;;;24.10;74.10;;;;;;10518271;28;20274;-79
2023/07/09 01:00:52;;;;;;;4.40;4.07;;;24.00;74.00;;;;;;10495993;28;20746;-79
2023/07/09 01:05:55;;;;;;;5.00;4.23;;;24.00;74.20;;;;;;10518596;28;20228;-79
2023/07/09 01:10:58;;;;;;;4.47;4.07;;;24.00;75.40;;;;;;10502374;28;20223;-79
2023/07/09 01:16:01;;;;;;;4.50;4.10;;;23.90;75.70;;;;;;10493880;28;20267;-79
2023/07/09 01:21:15;;;;;;;5.20;4.37;;;23.90;75.50;;;;;;10520359;28;20300;-78
2023/07/09 01:26:19;;;;;;;4.40;4.10;;;23.80;75.20;;;;;;10519856;28;20290;-80
2023/07/09 01:31:23;;;;;;;4.43;3.97;;;23.80;76.30;;;;;;10507029;28;20247;-80
2023/07/09 01:36:28;;;;;;;7.50;4.60;;;23.80;75.70;;;;;;10518850;28;20294;-80
2023/07/09 01:41:34;;;;;;;4.37;3.97;;;23.80;76.00;;;;;;10520818;28;20193;-79
2023/07/09 01:46:36;;;;;;;4.53;4.13;;;23.70;75.90;;;;;;10483253;28;20223;-78
2023/07/09 01:51:40;;;;;;;6.17;4.93;;;23.70;76.60;;;;;;10495902;28;20616;-80
2023/07/09 01:56:42;;;;;;;3.93;3.63;;;23.70;76.60;;;;;;10517031;28;20290;-80
2023/07/09 02:01:44;;;;;;;5.10;4.23;;;23.60;77.10;;;;;;10503579;28;20250;-79
2023/07/09 02:06:47;;;;;;;4.43;4.03;;;23.60;77.30;;;;;;10511601;28;20699;-77
2023/07/09 02:11:49;;;;;;;4.93;4.20;;;23.60;77.40;;;;;;10504107;28;20225;-80
2023/07/09 02:16:52;;;;;;;4.80;4.50;;;23.60;77.00;;;;;;10504357;28;20703;-79
2023/07/09 02:21:55;;;;;;;7.60;4.50;;;23.60;77.60;;;;;;10481675;28;20306;-80
2023/07/09 02:26:59;;;;;;;5.00;4.50;;;23.50;77.40;;;;;;10499710;28;20777;-77
2023/07/09 02:32:02;;;;;;;5.03;4.63;;;23.50;77.70;;;;;;10486238;28;20335;-78
2023/07/09 02:37:07;;;;;;;5.00;4.20;;;23.40;77.50;;;;;;10513441;28;20212;-78
2023/07/09 02:42:10;;;;;;;4.20;3.90;;;23.40;78.50;;;;;;10498011;28;20196;-78
2023/07/09 02:47:14;;;;;;;5.50;4.40;;;23.40;78.40;;;;;;10493018;28;20243;-77
2023/07/09 02:52:17;;;;;;;4.97;4.27;;;23.30;78.00;;;;;;10496995;28;20212;-79
2023/07/09 02:57:20;;;;;;;4.80;4.50;;;23.30;78.10;;;;;;10491356;28;20247;-79
2023/07/09 03:02:22;;;;;;;4.50;4.20;;;23.30;78.20;;;;;;10496527;28;20576;-78
2023/07/09 03:07:25;;;;;;;5.13;4.63;;;23.20;78.20;;;;;;10496353;28;20262;-78
2023/07/09 03:12:28;;;;;;;4.63;4.23;;;23.20;78.10;;;;;;10481510;28;20196;-78
2023/07/09 03:17:30;;;;;;;4.67;4.20;;;23.10;78.40;;;;;;10515545;28;20220;-78
2023/07/09 03:22:33;;;;;;;4.63;4.20;;;23.10;77.70;;;;;;10478261;28;20287;-78
2023/07/09 03:27:35;;;;;;;4.63;4.23;;;23.10;78.00;;;;;;10494486;28;20767;-78
2023/07/09 03:32:37;;;;;;;4.77;4.40;;;23.00;78.60;;;;;;10498276;28;20208;-79
2023/07/09 03:37:41;;;;;;;5.10;4.63;;;23.00;78.10;;;;;;10524153;28;20220;-79
2023/07/09 03:42:43;;;;;;;4.90;4.40;;;23.00;78.50;;;;;;10520668;28;20235;-77
2023/07/09 03:47:45;;;;;;;4.90;4.50;;;23.00;78.30;;;;;;10522866;28;20779;-78
2023/07/09 03:52:49;;;;;;;5.10;4.50;;;22.90;78.10;;;;;;10519663;28;20193;-78
2023/07/09 03:57:51;;;;;;;4.97;4.50;;;22.90;78.70;;;;;;10487873;28;20208;-76
2023/07/09 04:02:53;;;;;;;4.50;4.10;;;22.90;78.60;;;;;;10520570;28;20284;-78
2023/07/09 04:07:56;;;;;;;4.00;3.70;;;22.90;79.20;;;;;;10503213;28;20380;-78
2023/07/09 04:12:58;;;;;;;4.73;4.27;;;22.90;79.00;;;;;;10504556;28;20201;-78
2023/07/09 04:18:00;;;;;;;4.50;4.10;;;22.90;79.90;;;;;;10519291;28;20225;-77
2023/07/09 04:23:04;;;;;;;9.30;4.43;;;22.90;78.80;;;;;;10507541;28;20200;-78
2023/07/09 04:28:06;;;;;;;5.20;4.70;;;22.90;79.30;;;;;;10523679;28;20246;-78
2023/07/09 04:33:09;;;;;;;5.83;5.07;;;22.90;79.50;;;;;;10502875;28;20200;-78
2023/07/09 04:38:13;;;;;;;5.10;4.57;;;22.90;80.00;;;;;;10520438;28;20236;-76
2023/07/09 04:43:15;;;;;;;4.87;4.43;;;22.90;80.30;;;;;;10501295;28;20197;-77
2023/07/09 04:48:17;;;;;;;5.70;4.97;;;22.90;80.30;;;;;;10517757;28;20228;-78
2023/07/09 04:53:23;;;;;;;5.00;4.50;;;22.90;80.10;;;;;;10521090;28;20204;-79
2023/07/09 04:58:26;;;;;;;5.40;5.00;;;23.00;80.50;;;;;;10517606;28;20223;-78
2023/07/09 05:03:28;;;;;;;6.10;4.90;;;23.00;81.20;;;;;;10523020;28;20284;-77
2023/07/09 05:08:32;;;;;;;5.63;4.37;;;23.10;81.50;;;;;;10520067;28;20308;-77
2023/07/09 05:13:34;;;;;;;5.20;4.70;;;23.20;81.00;;;;;;10518950;28;20209;-78
2023/07/09 05:18:38;;;;;;;7.10;4.70;;;23.20;80.80;;;;;;10518729;28;20220;-78
2023/07/09 05:23:41;;;;;;;5.63;5.13;;;23.30;81.20;;;;;;10500265;28;20202;-77
2023/07/09 05:28:44;;;;;;;7.10;5.57;;;23.40;81.10;;;;;;10514384;28;20243;-79
2023/07/09 05:33:47;;;;;;;7.97;4.60;;;23.50;81.80;;;;;;10509048;28;20196;-78
2023/07/09 05:38:50;;;;;;;5.60;5.10;;;23.50;82.00;;;;;;10503439;28;20563;-77
2023/07/09 05:43:53;;;;;;;5.60;5.10;;;23.60;81.70;;;;;;10497079;28;20580;-78
2023/07/09 05:48:55;;;;;;;4.23;3.93;;;23.60;82.30;;;;;;10516789;28;20251;-79
2023/07/09 05:53:59;;;;;;;6.77;5.30;;;23.70;82.10;;;;;;10514848;28;20205;-78
2023/07/09 05:59:01;;;;;;;4.87;4.33;;;23.70;81.90;;;;;;10512634;28;20243;-78
2023/07/09 06:04:04;;;;;;;5.37;4.27;;;23.70;81.40;;;;;;10516362;28;20208;-77
2023/07/09 06:09:08;;;;;;;5.33;4.83;;;23.80;81.20;;;;;;10516385;28;20226;-78
2023/07/09 06:14:10;;;;;;;5.00;4.60;;;23.80;82.30;;;;;;10515154;28;20216;-78
2023/07/09 06:19:12;;;;;;;5.47;4.97;;;23.90;82.00;;;;;;10507525;28;20196;-79
2023/07/09 06:24:16;;;;;;;5.43;4.93;;;24.00;80.90;;;;;;10514546;28;20570;-78
2023/07/09 06:29:18;;;;;;;5.93;5.43;;;24.10;80.50;;;;;;10519073;28;20266;-78
2023/07/09 06:34:20;;;;;;;5.37;4.87;;;24.20;80.60;;;;;;10492567;28;20240;-78
2023/07/09 06:39:23;;;;;;;4.60;4.20;;;24.30;81.10;;;;;;10509096;28;20193;-79
2023/07/09 06:44:25;;;;;;;5.27;4.87;;;24.50;82.00;;;;;;10518156;28;20236;-77
2023/07/09 06:49:29;;;;;;;4.90;4.50;;;24.70;82.30;;;;;;10517242;28;20584;-79
2023/07/09 06:54:32;;;;;;;6.43;5.27;;;25.00;83.40;;;;;;10514640;28;20217;-79
2023/07/09 06:59:34;;;;;;;8.50;5.20;;;25.30;81.80;;;;;;10516414;28;20204;-78
2023/07/09 07:04:36;;;;;;;4.97;4.60;;;25.50;80.90;;;;;;10518115;28;20223;-79
2023/07/09 07:09:40;;;;;;;6.40;4.90;;;25.80;80.20;;;;;;10521750;28;20233;-76
2023/07/09 07:14:42;;;;;;;8.50;5.50;;;26.10;78.20;;;;;;10534130;28;20255;-78
2023/07/09 07:19:44;;;;;;;5.93;5.20;;;26.20;77.20;;;;;;10527031;28;20198;-79
2023/07/09 07:24:48;;;;;;;6.03;5.40;;;26.50;76.70;;;;;;10528029;28;20237;-77
2023/07/09 07:29:50;;;;;;;7.60;4.83;;;26.80;75.60;;;;;;10524958;28;20307;-78
2023/07/09 07:34:54;;;;;;;6.93;4.83;;;27.20;75.80;;;;;;10524305;28;20239;-79
2023/07/09 07:39:57;;;;;;;5.43;4.93;;;27.60;75.40;;;;;;10519665;28;20207;-79
2023/07/09 07:45:00;;;;;;;7.23;4.90;;;28.10;73.30;;;;;;10508576;28;20216;-79
2023/07/09 07:50:02;;;;;;;8.03;5.27;;;28.60;72.00;;;;;;10521770;28;20278;-79
2023/07/09 07:55:08;;;;;;;5.43;4.73;;;29.20;70.40;;;;;;10505128;28;20598;-79
2023/07/09 08:00:11;;;;;;;6.20;5.33;;;29.80;69.70;;;;;;10519196;28;20201;-80
2023/07/09 08:05:16;;;;;;;5.53;4.87;;;30.40;68.60;;;;;;10522546;28;20252;-80
2023/07/09 08:10:20;;;;;;;5.70;5.20;;;30.90;65.90;;;;;;10511660;28;20233;-80
2023/07/09 08:15:22;;;;;;;5.50;5.00;;;31.40;65.10;;;;;;10520321;28;20217;-79
2023/07/09 08:20:24;;;;;;;4.63;4.33;;;31.90;64.30;;;;;;10523897;28;20223;-78
2023/07/09 08:25:27;;;;;;;5.67;4.80;;;32.40;61.70;;;;;;10521936;28;20225;-80
2023/07/09 08:30:29;;;;;;;5.33;4.77;;;32.80;61.00;;;;;;10518825;28;20220;-80
2023/07/09 08:35:32;;;;;;;4.50;4.10;;;33.20;60.50;;;;;;10525795;28;20220;-80
2023/07/09 08:40:40;;;;;;;4.60;4.20;;;33.50;58.00;;;;;;10524429;28;20273;-78
2023/07/09 08:45:50;;;;;;;5.57;5.00;;;33.70;58.70;;;;;;10533840;28;20231;-79
2023/07/09 08:50:58;;;;;;;5.33;4.47;;;34.00;58.20;;;;;;10522226;28;20259;-80
2023/07/09 08:56:01;;;;;;;5.13;4.73;;;34.20;57.70;;;;;;10517972;28;20217;-80
2023/07/09 09:01:06;;;;;;;5.00;4.50;;;34.30;57.40;;;;;;10524185;28;20231;-80
2023/07/09 09:06:13;;;;;;;5.73;5.10;;;34.50;57.90;;;;;;10516951;28;20769;-80
2023/07/09 09:11:24;;;;;;;5.00;4.60;;;34.70;56.90;;;;;;10515882;28;20250;-80
2023/07/09 09:16:30;;;;;;;5.33;4.93;;;35.00;55.60;;;;;;10515865;28;20254;-80
2023/07/09 09:21:35;;;;;;;4.50;4.20;;;35.20;55.50;;;;;;10512528;28;20223;-81
2023/07/09 09:26:42;;;;;;;5.20;4.80;;;35.50;55.30;;;;;;10507258;28;20651;-79
2023/07/09 09:31:49;;;;;;;5.40;4.90;;;35.70;54.60;;;;;;10522934;28;20231;-78
2023/07/09 09:36:51;;;;;;;4.63;4.33;;;36.10;53.90;;;;;;10524520;28;20631;-78
2023/07/09 09:41:59;;;;;;;5.05;4.57;;;36.50;53.20;;;;;;10508494;28;20233;-80
2023/07/09 09:47:01;;;;;;;5.25;4.85;;;36.90;53.00;;;;;;10516219;28;20242;-81
2023/07/09 09:52:12;;;;;;;4.30;3.90;;;37.70;51.80;;;;;;10522506;28;20213;-81
2023/07/09 09:57:18;;;;;;;5.97;4.55;;;38.50;50.70;;;;;;10519119;28;20614;-81
2023/07/09 10:02:23;;;;;;;3.90;3.60;;;39.50;49.00;;;;;;10516261;28;20717;-82
2023/07/09 10:07:33;;;;;;;5.53;3.95;;;40.60;45.80;;;;;;10505097;28;20224;-81
2023/07/09 10:12:45;;;;;;;5.25;4.65;;;41.70;43.50;;;;;;10516925;28;20228;-81
2023/07/09 10:17:55;;;;;;;4.03;3.72;;;42.60;42.20;;;;;;10533987;28;20220;-82
2023/07/09 10:23:03;;;;;;;5.40;4.90;;;43.50;40.90;;;;;;10531669;28;20228;-82
2023/07/09 10:28:36;;;;;;;4.28;3.90;;;44.40;39.90;;;;;;10534306;28;20224;-82
2023/07/09 10:33:54;;;;;;;4.07;3.78;;;43.20;37.30;;;;;;10528443;28;20243;-82
2023/07/09 10:39:03;;;;;;;4.00;3.58;;;40.90;38.90;;;;;;10505741;28;20191;-82
2023/07/09 10:44:12;;;;;;;4.13;3.83;;;39.00;40.10;;;;;;10512729;28;20223;-78
2023/07/09 10:49:16;;;;;;;3.90;3.60;;;37.50;42.50;;;;;;10514007;28;20204;-81
2023/07/09 10:54:29;;;;;;;4.30;3.90;;;36.30;43.60;;;;;;10513231;28;20228;-81
2023/07/09 10:59:36;;;;;;;4.17;3.87;;;35.40;43.80;;;;;;10514034;28;20246;-81
2023/07/09 11:04:46;;;;;;;3.87;3.53;;;34.60;43.00;;;;;;10517526;28;20281;-81
2023/07/09 11:09:51;;;;;;;6.77;4.70;;;34.00;43.60;;;;;;10514195;28;20232;-81
2023/07/09 11:15:00;;;;;;;4.33;3.10;;;33.60;45.60;;;;;;10519797;28;20217;-81
2023/07/09 11:20:08;;;;;;;6.03;4.13;;;33.10;45.30;;;;;;10519328;28;20217;-81
2023/07/09 11:25:13;;;;;;;4.07;3.67;;;32.80;44.50;;;;;;10532844;28;20244;-80
2023/07/09 11:30:23;;;;;;;4.80;4.40;;;32.50;46.10;;;;;;10519070;28;20248;-81
2023/07/09 11:35:27;;;;;;;5.20;4.70;;;32.20;46.60;;;;;;10526935;28;20224;-80
2023/07/09 11:40:29;;;;;;;6.13;4.30;;;32.00;47.50;;;;;;10527629;28;20197;-78
2023/07/09 11:45:34;;;;;;;4.90;4.40;;;31.80;46.70;;;;;;10520755;28;20228;-80
2023/07/09 11:50:41;;;;;;;4.70;4.17;;;31.80;46.10;;;;;;10519476;28;20769;-80
2023/07/09 11:55:45;;;;;;;3.80;3.50;;;31.70;46.50;;;;;;10503835;28;20240;-81
2023/07/09 12:00:51;;;;;;;4.00;3.60;;;31.60;48.40;;;;;;10524478;28;20228;-80
2023/07/09 12:05:55;;;;;;;6.50;5.03;;;31.60;48.90;;;;;;10527896;28;20715;-80
2023/07/09 12:10:57;;;;;;;6.63;4.37;;;31.50;47.80;;;;;;10526513;28;20259;-81
2023/07/09 12:16:00;;;;;;;5.53;4.47;;;31.50;46.50;;;;;;10528479;28;20293;-81
2023/07/09 12:21:03;;;;;;;6.80;5.50;;;31.40;47.90;;;;;;10522205;28;20197;-77
2023/07/09 12:26:05;;;;;;;4.93;4.13;;;31.40;48.70;;;;;;10517705;28;20236;-80
2023/07/09 12:31:14;;;;;;;4.77;4.37;;;31.30;48.60;;;;;;10490962;28;20230;-80
2023/07/09 12:36:18;;;;;;;4.13;3.73;;;31.30;48.50;;;;;;10519923;28;21027;-81
2023/07/09 12:41:25;;;;;;;4.50;4.10;;;31.30;48.30;;;;;;10524988;28;20267;-81
2023/07/09 12:46:29;;;;;;;5.23;4.50;;;31.30;48.60;;;;;;10522036;28;20606;-78
2023/07/09 12:51:31;;;;;;;5.23;4.70;;;31.30;47.10;;;;;;10522172;28;20278;-81
2023/07/09 12:56:36;;;;;;;5.43;4.33;;;31.30;47.10;;;;;;10520023;28;20232;-81
2023/07/09 13:01:40;;;;;;;6.77;4.57;;;31.20;47.30;;;;;;10523833;28;20196;-81
2023/07/09 13:06:45;;;;;;;5.40;4.87;;;31.20;47.40;;;;;;10520404;28;20228;-81
2023/07/09 13:11:47;;;;;;;5.00;4.50;;;31.30;47.40;;;;;;10524181;28;20323;-80
2023/07/09 13:16:50;;;;;;;4.20;3.80;;;31.20;49.40;;;;;;10506397;28;20225;-81
2023/07/09 13:21:54;;;;;;;6.10;4.60;;;31.30;46.40;;;;;;10519475;28;20193;-77
2023/07/09 13:26:58;;;;;;;4.93;3.77;;;31.40;47.10;;;;;;10500910;28;20530;-80
2023/07/09 13:32:02;;;;;;;6.27;5.63;;;31.40;47.70;;;;;;10523336;28;20255;-79
2023/07/09 13:37:05;;;;;;;5.17;3.80;;;31.40;47.90;;;;;;10503351;28;20224;-81
2023/07/09 13:42:12;;;;;;;6.93;3.80;;;31.40;46.60;;;;;;10520730;28;20198;-80
2023/07/09 13:47:17;;;;;;;4.30;3.90;;;31.40;46.10;;;;;;10503775;28;20286;-80
2023/07/09 13:52:23;;;;;;;6.43;4.77;;;31.40;47.20;;;;;;10514420;28;20228;-80
2023/07/09 13:57:25;;;;;;;5.00;4.10;;;31.30;47.10;;;;;;10518487;28;20278;-78
2023/07/09 14:02:32;;;;;;;4.90;4.50;;;31.30;47.80;;;;;;10513427;28;20208;-77
2023/07/09 14:07:36;;;;;;;5.63;4.63;;;31.30;47.50;;;;;;10504740;28;20705;-77
2023/07/09 14:12:41;;;;;;;7.90;4.30;;;31.40;46.90;;;;;;10521373;28;20710;-81
2023/07/09 14:17:46;;;;;;;4.50;4.10;;;31.50;47.10;;;;;;10509934;28;20243;-80
2023/07/09 14:22:49;;;;;;;5.07;4.60;;;31.80;46.70;;;;;;10514341;28;20211;-80
2023/07/09 14:27:51;;;;;;;4.73;4.30;;;31.90;48.30;;;;;;10513414;28;20259;-77
2023/07/09 14:32:55;;;;;;;4.53;4.13;;;31.80;47.30;;;;;;10510745;28;20229;-79
2023/07/09 14:37:59;;;;;;;5.23;4.83;;;31.90;47.40;;;;;;10499320;28;20278;-79
2023/07/09 14:43:02;;;;;;;5.10;4.70;;;31.90;48.30;;;;;;10514114;28;20211;-79
2023/07/09 14:48:10;;;;;;;4.70;3.73;;;31.90;48.90;;;;;;10507571;28;20316;-78
2023/07/09 14:53:15;;;;;;;4.83;4.33;;;31.90;47.80;;;;;;10496025;28;20235;-79
2023/07/09 14:58:19;;;;;;;8.33;4.77;;;31.80;48.30;;;;;;10514984;28;20216;-79
2023/07/09 15:03:25;;;;;;;4.43;4.03;;;31.80;47.80;;;;;;10517124;28;20197;-80
2023/07/09 15:08:27;;;;;;;4.37;3.97;;;31.80;48.80;;;;;;10518921;28;20213;-79
2023/07/09 15:13:32;;;;;;;6.20;3.80;;;31.80;47.40;;;;;;10517570;28;20569;-79
2023/07/09 15:18:36;;;;;;;5.80;3.80;;;31.90;47.60;;;;;;10508129;28;20216;-79
2023/07/09 15:23:44;;;;;;;3.67;3.37;;;31.90;48.60;;;;;;10501344;28;20197;-80
2023/07/09 15:28:50;;;;;;;4.13;3.83;;;32.00;46.40;;;;;;10516213;28;20216;-80
2023/07/09 15:33:53;;;;;;;4.30;3.60;;;32.00;46.40;;;;;;10505378;28;20232;-79
2023/07/09 15:38:55;;;;;;;4.60;3.90;;;31.90;45.20;;;;;;10498515;28;20193;-80
2023/07/09 15:43:57;;;;;;;4.57;4.13;;;31.90;47.30;;;;;;10520900;28;20295;-78
2023/07/09 15:49:01;;;;;;;4.23;3.83;;;31.80;48.10;;;;;;10528679;28;20673;-78
2023/07/09 15:54:10;;;;;;;4.30;3.93;;;31.60;48.90;;;;;;10544818;28;20223;-78
2023/07/09 15:59:27;;;;;;;4.00;3.70;;;31.40;49.50;;;;;;10535586;28;20612;-79
2023/07/09 16:04:30;;;;;;;6.07;3.90;;;31.30;52.00;;;;;;10537351;28;20216;-79
2023/07/09 16:09:33;;;;;;;3.87;3.50;;;31.20;51.10;;;;;;10523749;28;20205;-79
2023/07/09 16:14:35;;;;;;;4.30;3.63;;;31.00;53.20;;;;;;10521678;28;20217;-81
2023/07/09 16:19:38;;;;;;;3.87;3.57;;;30.80;55.10;;;;;;10524382;28;20260;-78
2023/07/09 16:24:40;;;;;;;5.23;4.00;;;30.70;51.20;;;;;;10522808;28;20236;-79
2023/07/09 16:29:42;;;;;;;4.40;4.00;;;30.60;54.10;;;;;;10518689;28;20209;-80
2023/07/09 16:34:46;;;;;;;5.77;4.70;;;30.50;53.90;;;;;;10508061;28;20225;-80
2023/07/09 16:39:48;;;;;;;4.70;4.20;;;30.40;52.00;;;;;;10521472;28;20220;-79
2023/07/09 16:44:50;;;;;;;5.43;4.93;;;30.40;53.90;;;;;;10509113;28;20240;-79
2023/07/09 16:49:54;;;;;;;5.63;3.90;;;30.40;55.30;;;;;;10500477;28;20211;-79
2023/07/09 16:54:57;;;;;;;3.87;3.57;;;30.40;53.10;;;;;;10520269;28;20228;-77
2023/07/09 17:00:20;;;;;;;7.73;3.60;;;30.50;53.90;;;;;;10498287;28;20193;-79
2023/07/09 17:05:26;;;;;;;4.50;4.20;;;30.60;52.80;;;;;;10519231;28;20316;-80
2023/07/09 17:10:29;;;;;;;4.00;3.70;;;30.70;53.50;;;;;;10523513;28;20321;-79
2023/07/09 17:15:32;;;;;;;4.63;3.70;;;30.80;53.40;;;;;;10520566;28;20268;-77
2023/07/09 17:20:36;;;;;;;4.63;3.70;;;30.90;52.60;;;;;;10519192;28;20189;-79
2023/07/09 17:25:39;;;;;;;3.63;3.43;;;31.00;52.70;;;;;;10520912;28;20232;-79
2023/07/09 17:30:41;;;;;;;4.00;3.60;;;31.20;52.10;;;;;;10515673;28;20799;-79
2023/07/09 17:35:48;;;;;;;3.53;3.23;;;31.20;51.50;;;;;;10522237;28;20246;-79
2023/07/09 17:40:50;;;;;;;5.37;4.20;;;31.20;51.40;;;;;;10508474;28;20201;-79
2023/07/09 17:45:54;;;;;;;4.30;3.90;;;31.20;50.80;;;;;;10512672;28;20329;-79
2023/07/09 17:50:57;;;;;;;5.13;3.80;;;31.10;51.10;;;;;;10513879;28;20296;-79
2023/07/09 17:55:59;;;;;;;4.27;3.87;;;30.80;52.90;;;;;;10523049;28;20645;-78
2023/07/09 18:01:04;;;;;;;4.20;3.80;;;30.60;52.30;;;;;;10521901;28;20192;-78
2023/07/09 18:06:14;;;;;;;6.00;3.90;;;30.50;52.10;;;;;;10528533;28;20212;-77
2023/07/09 18:11:24;;;;;;;4.07;3.77;;;30.40;52.90;;;;;;10514240;28;20213;-78
2023/07/09 18:16:27;;;;;;;3.73;3.43;;;30.40;53.20;;;;;;10489603;28;20221;-80
2023/07/09 18:21:30;;;;;;;6.80;3.90;;;30.30;53.20;;;;;;10500856;28;20250;-78
2023/07/09 18:26:32;;;;;;;4.70;4.03;;;30.20;53.50;;;;;;10526596;28;20233;-79
2023/07/09 18:31:34;;;;;;;6.37;4.00;;;30.10;53.80;;;;;;10516992;28;20231;-80
2023/07/09 18:36:38;;;;;;;3.90;3.60;;;30.00;53.40;;;;;;10490401;28;20233;-78
2023/07/09 18:41:40;;;;;;;4.00;3.60;;;29.90;54.10;;;;;;10514654;28;20656;-79
2023/07/09 18:46:42;;;;;;;4.40;4.07;;;29.80;53.20;;;;;;10510482;28;20229;-78
2023/07/09 18:51:46;;;;;;;3.33;3.13;;;29.70;53.30;;;;;;10512793;28;20573;-79
2023/07/09 18:56:48;;;;;;;4.30;3.90;;;29.50;53.90;;;;;;10501762;28;20225;-80
2023/07/09 19:01:51;;;;;;;4.60;4.20;;;29.40;54.10;;;;;;10505880;28;20269;-79
2023/07/09 19:06:55;;;;;;;9.20;4.27;;;29.30;54.70;;;;;;10509591;28;20213;-79
2023/07/09 19:11:57;;;;;;;4.07;3.77;;;29.20;54.80;;;;;;10516498;28;20248;-78
2023/07/09 19:17:17;;;;;;;6.30;3.60;;;29.00;55.10;;;;;;10511479;28;20224;-79
2023/07/09 19:22:20;;;;;;;5.97;4.80;;;28.90;55.60;;;;;;10513257;28;20208;-80
2023/07/09 19:27:22;;;;;;;5.23;4.30;;;28.80;55.90;;;;;;10479465;28;20229;-80
2023/07/09 19:32:27;;;;;;;5.73;5.17;;;28.70;56.30;;;;;;10519841;28;20259;-80
2023/07/09 19:37:31;;;;;;;5.20;4.70;;;28.60;56.60;;;;;;10524335;28;20232;-79
2023/07/09 19:42:33;;;;;;;8.83;4.80;;;28.50;56.70;;;;;;10519117;28;20198;-80
2023/07/09 19:47:36;;;;;;;4.83;4.43;;;28.40;56.90;;;;;;10513133;28;20300;-80
2023/07/09 19:52:40;;;;;;;4.67;4.17;;;28.40;57.20;;;;;;10514012;28;20289;-79
2023/07/09 19:57:42;;;;;;;4.77;4.37;;;28.30;57.50;;;;;;10518688;28;20233;-79
2023/07/09 20:02:44;;;;;;;4.87;4.33;;;28.20;58.00;;;;;;10514922;28;20304;-80
2023/07/09 20:07:48;;;;;;;4.80;4.03;;;28.10;58.20;;;;;;10491824;28;20224;-79
2023/07/09 20:12:52;;;;;;;25.93;20.10;;;28.10;58.60;;;;;;10501025;28;20283;-79
2023/07/09 20:17:56;;;;;;;9.43;7.93;;;28.00;58.90;;;;;;10510575;28;20232;-79
2023/07/09 20:23:00;;;;;;;6.10;4.47;;;27.90;59.10;;;;;;10509598;28;20198;-79
2023/07/09 20:28:08;;;;;;;7.27;4.77;;;27.90;59.30;;;;;;10504231;28;20243;-80
2023/07/09 20:33:11;;;;;;;5.90;5.30;;;27.90;60.00;;;;;;10525187;28;20221;-79
2023/07/09 20:38:17;;;;;;;5.00;4.60;;;27.80;59.70;;;;;;10510293;28;20304;-79
2023/07/09 20:43:21;;;;;;;4.90;4.37;;;27.70;59.90;;;;;;10516721;28;20292;-80
2023/07/09 20:48:24;;;;;;;5.17;4.70;;;27.60;59.50;;;;;;10521948;28;20225;-79
2023/07/09 20:53:27;;;;;;;7.40;4.40;;;27.60;59.50;;;;;;10524594;28;20291;-80
2023/07/09 20:58:30;;;;;;;5.20;4.70;;;27.50;61.20;;;;;;10522461;28;20221;-80
2023/07/09 21:03:32;;;;;;;4.77;4.37;;;27.50;58.90;;;;;;10522233;28;20176;-79
2023/07/09 21:08:35;;;;;;;5.60;4.47;;;27.50;59.30;;;;;;10523750;28;20583;-79
2023/07/09 21:13:37;;;;;;;5.33;4.83;;;27.50;59.10;;;;;;10518317;28;20250;-79
2023/07/09 21:18:39;;;;;;;5.97;4.70;;;27.40;59.50;;;;;;10513360;28;20286;-79
2023/07/09 21:23:43;;;;;;;5.73;4.50;;;27.40;60.60;;;;;;10520320;28;20686;-79
2023/07/09 21:28:46;;;;;;;6.50;4.90;;;27.30;61.20;;;;;;10520348;28;20225;-79
2023/07/09 21:33:49;;;;;;;6.37;5.43;;;27.30;63.40;;;;;;10499790;28;20220;-80
2023/07/09 21:38:52;;;;;;;6.13;5.60;;;27.20;63.90;;;;;;10513889;28;20209;-80
2023/07/09 21:43:54;;;;;;;8.10;5.10;;;27.10;64.40;;;;;;10519016;28;20228;-79
2023/07/09 21:48:57;;;;;;;5.90;4.90;;;27.10;64.00;;;;;;10521132;28;20196;-78
2023/07/09 21:54:00;;;;;;;5.90;5.33;;;27.00;63.70;;;;;;10524097;28;20228;-79
2023/07/09 21:59:02;;;;;;;6.30;5.07;;;27.00;63.30;;;;;;10512781;28;20203;-80
2023/07/09 22:04:14;;;;;;;5.33;4.83;;;26.90;63.60;;;;;;10512944;28;20194;-78
2023/07/09 22:09:18;;;;;;;5.50;5.00;;;26.90;63.90;;;;;;10501191;28;20193;-80
2023/07/09 22:14:23;;;;;;;7.03;5.53;;;26.90;65.10;;;;;;10483271;28;20250;-80
2023/07/09 22:19:25;;;;;;;9.03;4.97;;;26.80;64.20;;;;;;10494803;28;20675;-79
2023/07/09 22:24:28;;;;;;;5.63;5.10;;;26.80;67.00;;;;;;10510794;28;20615;-79
2023/07/09 22:29:30;;;;;;;5.83;5.23;;;26.70;65.90;;;;;;10478281;28;20207;-79
2023/07/09 22:34:33;;;;;;;4.80;4.40;;;26.70;65.50;;;;;;10510444;28;20221;-79
2023/07/09 22:39:36;;;;;;;8.80;4.67;;;26.70;65.80;;;;;;10506013;28;20197;-79
2023/07/09 22:44:38;;;;;;;6.53;4.50;;;26.60;65.60;;;;;;10523364;28;20213;-79
2023/07/09 22:49:40;;;;;;;5.43;4.70;;;26.60;65.70;;;;;;10519557;28;20204;-79
2023/07/09 22:54:44;;;;;;;7.33;4.40;;;26.50;66.10;;;;;;10523197;28;20323;-80
2023/07/09 22:59:46;;;;;;;5.30;4.90;;;26.50;66.00;;;;;;10515321;28;20205;-79
2023/07/09 23:04:49;;;;;;;5.37;4.87;;;26.40;66.10;;;;;;10497536;28;20259;-79
2023/07/09 23:09:53;;;;;;;5.10;4.67;;;26.40;66.50;;;;;;10522655;28;20288;-80
2023/07/09 23:14:55;;;;;;;6.03;5.47;;;26.30;66.30;;;;;;10493079;28;20227;-79
2023/07/09 23:19:57;;;;;;;4.47;4.17;;;26.20;66.00;;;;;;10499836;28;20197;-80
2023/07/09 23:25:00;;;;;;;4.77;4.37;;;26.20;66.00;;;;;;10518525;28;20228;-79
2023/07/09 23:30:13;;;;;;;4.83;4.33;;;26.20;66.20;;;;;;10520764;28;20189;-79
2023/07/09 23:35:18;;;;;;;4.73;4.20;;;26.10;65.80;;;;;;10512744;28;20307;-79
2023/07/09 23:40:24;;;;;;;5.17;4.77;;;26.00;65.90;;;;;;10514185;28;20201;-79
2023/07/09 23:45:26;;;;;;;5.73;5.17;;;26.00;66.00;;;;;;10521306;28;20216;-79
2023/07/09 23:50:28;;;;;;;5.10;4.70;;;26.00;66.40;;;;;;10523780;28;20210;-79
2023/07/09 23:55:32;;;;;;;5.80;5.07;;;25.90;66.50;;;;;;10520585;28;20228;-79
